Huvudsida
METAR-TAF:

METAR-TAF

Flygplatser :

Kalmar Öland Airport

Kalmar, Sverige

latitud: 56-44N, longitud: 016-18E, höjd: 16 m

Aktuellt väderrapport

Denna rapport gjordes för 38 minuter sedan, klockan 03:20 UTC
Vind 8 kt från sydväst
Temperatur 4°C
Fuktighet 87%
Tryck 1003 hPa
Sikt 10 km eller mer

METAR: ESMQ 190320Z AUTO 22008KT 9999 OVC015/// 04/02 Q1003

Tid: 04:58 (03:58 UTC)

Väderprognos

Denna rapport gjordes för 7 timmar och 28 minuter sedan, klockan 20:30 UTC
Prognos gäller från 18 kl. 21 UTC till 18 kl. 23 UTC
Vind 12 kt från sydväst
Sikt 10 km eller mer
Spridda moln på en höjd av 2500 ft
Sannolikhet 40%
från 18 kl. 21 UTC till 18 kl. 23 UTC
Spridda moln på en höjd av 2000 ft, Cumulonimbus.

TAF: ESMQ 182030Z 1821/1823 23012KT 9999 SCT025 PROB40 1821/1823 SCT020CB

Aktuella väderrapporter och prognoser från 4000 flygplatser (METAR- och TAF-rapporter).

De tillgängliga stationerna syns som gula och röda prickar på kartan.

För musen över prickarna för att se namnen på stationerna.

Klicka sedan för att få väderrapporter och prognoser.

För att ändra kartan: Klicka på de gröna knapparna med ett svart kors på för att zooma in; den gröna knappen med ett streck på för att zooma ut; eller på de gröna pilarna för angränsande kartor.


METAR-TAF: